Time;durP1;ratioP1;P1;durP2;ratioP2;P2;SDS_P1;SDS_P2;PMS_P1;PMS_P2;Temp;Humidity;BMP_temperature;BMP_pressure;BME280_temperature;BME280_humidity;BME280_pressure;Samples;Min_cycle;Max_cycle;Signal;HPM_P1;HPM_P2
2022/01/02 00:01:30;;;;;;;7.37;5.20;;;11.20;99.90;;;;;;5075552;28;20771;-69
2022/01/02 00:04:01;;;;;;;8.10;4.80;;;11.10;99.90;;;;;;5075184;28;20454;-70
2022/01/02 00:06:31;;;;;;;10.43;4.60;;;11.10;99.90;;;;;;5075104;28;20466;-70
2022/01/02 00:09:04;;;;;;;8.33;4.97;;;11.10;99.90;;;;;;5075146;28;20462;-70
2022/01/02 00:11:33;;;;;;;8.17;5.80;;;11.10;99.90;;;;;;5075297;28;20537;-70
2022/01/02 00:14:06;;;;;;;9.53;4.97;;;11.10;99.90;;;;;;5075283;28;20823;-70
2022/01/02 00:16:35;;;;;;;8.13;4.90;;;11.10;99.90;;;;;;5075264;28;20435;-69
2022/01/02 00:19:07;;;;;;;5.43;4.23;;;11.10;99.90;;;;;;5075247;28;20462;-71
2022/01/02 00:21:40;;;;;;;5.30;4.63;;;11.00;99.90;;;;;;5074968;28;20867;-69
2022/01/02 00:24:14;;;;;;;8.53;5.27;;;11.10;99.90;;;;;;5075148;28;20779;-70
2022/01/02 00:26:45;;;;;;;7.87;5.00;;;11.00;99.90;;;;;;5074151;28;20474;-69
2022/01/02 00:29:13;;;;;;;10.93;5.60;;;10.90;99.90;;;;;;5075277;28;20533;-69
2022/01/02 00:31:40;;;;;;;7.03;5.83;;;10.80;99.90;;;;;;5074980;28;20462;-69
2022/01/02 00:34:08;;;;;;;8.00;5.70;;;10.80;99.90;;;;;;5075053;28;20516;-70
2022/01/02 00:36:37;;;;;;;6.90;5.07;;;10.70;99.90;;;;;;5074832;28;20462;-69
2022/01/02 00:39:06;;;;;;;7.70;4.43;;;10.80;99.90;;;;;;5074831;28;20558;-70
2022/01/02 00:41:40;;;;;;;7.20;5.20;;;10.70;99.90;;;;;;5075032;28;20776;-70
2022/01/02 00:44:18;;;;;;;10.93;5.47;;;10.70;99.90;;;;;;5074820;28;20466;-70
2022/01/02 00:46:52;;;;;;;7.93;6.00;;;10.60;99.90;;;;;;5074907;28;20477;-70
2022/01/02 00:49:24;;;;;;;8.63;5.50;;;10.60;99.90;;;;;;5074863;28;20529;-69
2022/01/02 00:51:57;;;;;;;12.13;5.47;;;10.60;99.90;;;;;;5074999;28;20442;-69
2022/01/02 00:54:27;;;;;;;11.63;5.40;;;10.50;99.90;;;;;;5075005;28;20442;-69
2022/01/02 00:57:03;;;;;;;9.67;5.57;;;10.50;99.90;;;;;;5074915;28;20526;-69
2022/01/02 00:59:44;;;;;;;10.27;5.23;;;10.50;99.90;;;;;;5074641;28;20521;-69
2022/01/02 01:02:16;;;;;;;9.67;6.03;;;10.40;99.90;;;;;;5074606;28;20453;-70
2022/01/02 01:04:44;;;;;;;8.63;6.00;;;10.30;99.90;;;;;;5074971;28;20450;-70
2022/01/02 01:07:11;;;;;;;9.37;5.97;;;10.40;99.90;;;;;;5074890;28;20535;-70
2022/01/02 01:09:37;;;;;;;11.53;5.97;;;10.30;99.90;;;;;;5075065;28;20481;-70
2022/01/02 01:12:05;;;;;;;11.40;6.50;;;10.30;99.90;;;;;;5075281;28;20458;-70
2022/01/02 01:14:34;;;;;;;10.87;5.70;;;10.30;99.90;;;;;;5075057;28;20809;-70
2022/01/02 01:17:01;;;;;;;6.57;5.70;;;10.40;99.90;;;;;;5074280;28;20879;-70
2022/01/02 01:19:27;;;;;;;11.73;6.27;;;10.30;99.90;;;;;;5074444;28;20454;-70
2022/01/02 01:21:54;;;;;;;8.80;6.00;;;10.30;99.90;;;;;;5074376;28;20470;-69
2022/01/02 01:24:21;;;;;;;7.97;5.77;;;10.30;99.90;;;;;;5074343;28;20553;-69
2022/01/02 01:26:50;;;;;;;12.33;6.70;;;10.20;99.90;;;;;;5074085;28;20953;-69
2022/01/02 01:29:17;;;;;;;9.27;6.20;;;10.30;99.90;;;;;;5074524;28;20465;-70
2022/01/02 01:31:46;;;;;;;11.53;7.67;;;10.20;99.90;;;;;;5074564;28;20835;-70
2022/01/02 01:34:13;;;;;;;13.97;7.77;;;10.20;99.90;;;;;;5074725;28;20466;-70
2022/01/02 01:36:40;;;;;;;9.80;6.00;;;10.20;99.90;;;;;;5074210;28;20455;-69
2022/01/02 01:39:06;;;;;;;10.43;6.50;;;10.20;99.90;;;;;;5076656;28;20457;-70
2022/01/02 01:41:38;;;;;;;11.30;6.70;;;10.20;99.90;;;;;;5078310;28;20507;-69
2022/01/02 01:44:21;;;;;;;10.40;6.77;;;10.10;99.90;;;;;;5077877;28;20438;-70
2022/01/02 01:46:54;;;;;;;13.40;7.00;;;10.00;99.90;;;;;;5078590;28;20473;-70
2022/01/02 01:49:25;;;;;;;11.40;6.30;;;10.10;99.90;;;;;;5078172;28;20435;-70
2022/01/02 01:51:52;;;;;;;7.40;6.13;;;10.10;99.90;;;;;;5077862;28;20461;-69
2022/01/02 01:54:19;;;;;;;9.50;6.60;;;10.00;99.90;;;;;;5078681;28;20809;-70
2022/01/02 01:56:46;;;;;;;8.63;6.23;;;10.00;99.90;;;;;;5078507;28;20503;-69
2022/01/02 01:59:14;;;;;;;11.57;6.43;;;10.00;99.90;;;;;;5078797;28;20478;-70
2022/01/02 02:01:41;;;;;;;8.87;6.67;;;10.00;99.90;;;;;;5078164;28;20453;-70
2022/01/02 02:04:09;;;;;;;11.43;6.40;;;10.00;99.90;;;;;;5078451;28;20453;-70
2022/01/02 02:06:37;;;;;;;10.87;6.30;;;10.00;99.90;;;;;;5078411;28;20486;-69
2022/01/02 02:09:04;;;;;;;6.97;6.27;;;10.00;99.90;;;;;;5078279;28;20485;-69
2022/01/02 02:11:31;;;;;;;9.23;5.97;;;9.90;99.90;;;;;;5077956;28;20923;-70
2022/01/02 02:13:58;;;;;;;11.60;7.40;;;9.90;99.90;;;;;;5078326;28;20952;-70
2022/01/02 02:16:27;;;;;;;9.13;6.40;;;9.80;99.90;;;;;;5078166;28;20454;-69
2022/01/02 02:18:54;;;;;;;8.20;5.90;;;9.80;99.90;;;;;;5077952;28;20458;-71
2022/01/02 02:21:29;;;;;;;8.67;6.60;;;9.80;99.90;;;;;;5077415;28;20457;-70
2022/01/02 02:23:56;;;;;;;7.90;6.17;;;9.80;99.90;;;;;;5077690;28;20442;-70
2022/01/02 02:26:23;;;;;;;10.60;6.73;;;9.80;99.90;;;;;;5077354;28;20473;-70
2022/01/02 02:28:49;;;;;;;10.03;6.60;;;9.70;99.90;;;;;;5077363;28;20522;-69
2022/01/02 02:31:16;;;;;;;8.80;6.33;;;9.70;99.90;;;;;;5077319;28;20879;-69
2022/01/02 02:33:43;;;;;;;8.93;6.53;;;9.60;99.90;;;;;;5077452;28;20922;-70
2022/01/02 02:36:10;;;;;;;8.57;6.17;;;9.60;99.90;;;;;;5076989;28;20841;-70
2022/01/02 02:38:40;;;;;;;8.23;6.33;;;9.60;99.90;;;;;;5077188;28;20458;-70
2022/01/02 02:41:06;;;;;;;9.60;6.63;;;9.60;99.90;;;;;;5077296;28;20458;-70
2022/01/02 02:43:39;;;;;;;7.70;6.23;;;9.60;99.90;;;;;;5077074;28;20910;-70
2022/01/02 02:49:05;;;;;;;10.50;5.87;;;9.70;99.90;;;;;;5076862;28;20965;-70
2022/01/02 02:51:42;;;;;;;8.37;6.20;;;9.70;99.90;;;;;;5076520;28;20533;-69
2022/01/02 02:54:10;;;;;;;11.27;6.47;;;9.70;99.90;;;;;;5077180;28;20778;-68
2022/01/02 02:56:45;;;;;;;8.93;6.10;;;9.60;99.90;;;;;;5076811;28;20450;-68
2022/01/02 02:59:13;;;;;;;6.30;5.30;;;9.60;99.90;;;;;;5076994;28;20442;-70
2022/01/02 03:01:40;;;;;;;8.20;5.93;;;9.60;99.90;;;;;;5076868;28;20450;-70
2022/01/02 03:04:07;;;;;;;6.93;5.23;;;9.70;99.90;;;;;;5076470;28;20466;-69
2022/01/02 03:06:34;;;;;;;8.50;6.23;;;9.60;99.90;;;;;;5076146;28;20453;-70
2022/01/02 03:09:07;;;;;;;7.70;5.57;;;9.70;99.90;;;;;;5076793;28;20458;-69
2022/01/02 03:11:36;;;;;;;9.10;6.07;;;9.70;99.90;;;;;;5076621;28;20493;-70
2022/01/02 03:14:04;;;;;;;13.33;6.80;;;9.60;99.90;;;;;;5077214;28;20467;-71
2022/01/02 03:16:31;;;;;;;10.03;5.80;;;9.60;99.90;;;;;;5076368;28;20462;-71
2022/01/02 03:18:57;;;;;;;8.63;6.47;;;9.60;99.90;;;;;;5076495;28;20454;-69
2022/01/02 03:21:24;;;;;;;7.40;5.40;;;9.60;99.90;;;;;;5076090;28;20458;-70
2022/01/02 03:23:51;;;;;;;9.50;6.03;;;9.60;99.90;;;;;;5076262;28;20455;-71
2022/01/02 03:26:18;;;;;;;8.37;5.33;;;9.60;99.90;;;;;;5076725;28;20466;-70
2022/01/02 03:28:47;;;;;;;9.30;6.10;;;9.60;99.90;;;;;;5076261;28;20482;-70
2022/01/02 03:31:14;;;;;;;7.50;5.30;;;9.60;99.90;;;;;;5076208;28;20469;-69
2022/01/02 03:33:41;;;;;;;7.80;5.10;;;9.60;99.90;;;;;;5076394;28;20458;-70
2022/01/02 03:36:08;;;;;;;9.70;6.10;;;9.60;99.90;;;;;;5076442;28;20511;-69
2022/01/02 03:38:35;;;;;;;9.60;5.20;;;9.60;99.90;;;;;;5075784;28;20534;-69
2022/01/02 03:41:02;;;;;;;7.73;5.33;;;9.60;99.90;;;;;;5076207;28;20528;-69
2022/01/02 03:43:28;;;;;;;8.87;6.07;;;9.70;99.90;;;;;;5076124;28;20470;-69
2022/01/02 03:45:56;;;;;;;8.00;6.20;;;9.70;99.90;;;;;;5075911;28;20458;-70
2022/01/02 03:48:23;;;;;;;7.10;5.40;;;9.60;99.90;;;;;;5075250;28;20482;-69
2022/01/02 03:50:50;;;;;;;8.70;5.53;;;9.60;99.90;;;;;;5076300;28;20805;-70
2022/01/02 03:53:16;;;;;;;7.43;5.47;;;9.70;99.90;;;;;;5075849;28;20480;-70
2022/01/02 03:55:43;;;;;;;8.40;5.10;;;9.60;99.90;;;;;;5075503;28;20462;-69
2022/01/02 03:58:10;;;;;;;6.47;5.53;;;9.60;99.90;;;;;;5075729;28;20465;-70
2022/01/02 04:00:37;;;;;;;9.03;6.20;;;9.60;99.90;;;;;;5075558;28;20454;-70
2022/01/02 04:03:05;;;;;;;10.10;6.60;;;9.60;99.90;;;;;;5075748;28;20785;-70
2022/01/02 04:05:32;;;;;;;7.67;5.17;;;9.60;99.90;;;;;;5075301;28;20470;-70
2022/01/02 04:07:59;;;;;;;6.37;5.70;;;9.60;99.90;;;;;;5075077;28;20482;-69
2022/01/02 04:10:26;;;;;;;7.67;6.00;;;9.60;99.90;;;;;;5075188;28;20461;-69
2022/01/02 04:12:53;;;;;;;7.50;5.37;;;9.60;99.90;;;;;;5075280;28;20466;-69
2022/01/02 04:15:19;;;;;;;6.83;5.40;;;9.50;99.90;;;;;;5075173;28;20454;-70
2022/01/02 04:17:49;;;;;;;7.37;6.23;;;9.50;99.90;;;;;;5075199;28;20781;-70
2022/01/02 04:20:17;;;;;;;6.97;5.50;;;9.50;99.90;;;;;;5074920;28;20461;-69
2022/01/02 04:22:45;;;;;;;8.73;5.53;;;9.60;99.90;;;;;;5075122;28;20462;-69
2022/01/02 04:25:13;;;;;;;10.30;5.83;;;9.50;99.90;;;;;;5074942;28;20891;-69
2022/01/02 04:27:40;;;;;;;8.40;5.50;;;9.50;99.90;;;;;;5075044;28;20840;-69
2022/01/02 04:30:10;;;;;;;8.70;5.93;;;9.60;99.90;;;;;;5074976;28;20523;-69
2022/01/02 04:32:36;;;;;;;8.50;5.40;;;9.60;99.90;;;;;;5075067;28;20458;-70
2022/01/02 04:35:04;;;;;;;8.00;5.17;;;9.60;99.90;;;;;;5075025;28;20462;-70
2022/01/02 04:37:32;;;;;;;11.27;6.37;;;9.60;99.90;;;;;;5074907;28;20473;-69
2022/01/02 04:39:59;;;;;;;6.97;5.60;;;9.60;99.90;;;;;;5075082;28;20464;-69
2022/01/02 04:42:25;;;;;;;8.50;5.70;;;9.60;99.90;;;;;;5074841;28;20458;-69
2022/01/02 04:44:52;;;;;;;8.17;5.30;;;9.70;99.90;;;;;;5074755;28;20465;-69
2022/01/02 04:47:19;;;;;;;7.50;5.80;;;9.70;99.90;;;;;;5074751;28;20486;-70
2022/01/02 04:49:45;;;;;;;10.97;5.70;;;9.70;99.90;;;;;;5074838;28;20454;-70
2022/01/02 04:52:12;;;;;;;6.03;4.67;;;9.70;99.90;;;;;;5074863;28;20454;-70
2022/01/02 04:54:40;;;;;;;8.27;5.73;;;9.70;99.90;;;;;;5074688;28;20914;-70
2022/01/02 04:57:07;;;;;;;7.10;5.27;;;9.70;99.90;;;;;;5075603;28;20458;-70
2022/01/02 04:59:33;;;;;;;6.80;5.23;;;9.60;99.90;;;;;;5075765;28;20466;-70
2022/01/02 05:02:02;;;;;;;7.97;6.90;;;9.70;99.90;;;;;;5077175;28;20459;-70
2022/01/02 05:04:28;;;;;;;6.60;5.77;;;9.70;99.90;;;;;;5077725;28;20857;-70
2022/01/02 05:06:55;;;;;;;8.70;5.53;;;9.70;99.90;;;;;;5075923;28;20524;-71
2022/01/02 05:09:22;;;;;;;10.67;5.77;;;9.70;99.90;;;;;;5075534;28;20929;-70
2022/01/02 05:11:51;;;;;;;8.20;5.93;;;9.60;99.90;;;;;;5075922;28;20461;-70
2022/01/02 05:14:18;;;;;;;5.73;5.20;;;9.70;99.90;;;;;;5077960;28;20454;-70
2022/01/02 05:16:44;;;;;;;9.37;6.40;;;9.60;99.90;;;;;;5076972;28;20454;-69
2022/01/02 05:19:11;;;;;;;8.53;5.80;;;9.50;99.90;;;;;;5075524;28;20469;-69
2022/01/02 05:21:38;;;;;;;8.40;6.00;;;9.40;99.90;;;;;;5075376;28;20458;-69
2022/01/02 05:24:04;;;;;;;12.30;6.13;;;9.40;99.90;;;;;;5074925;28;20462;-70
2022/01/02 05:26:31;;;;;;;9.20;6.50;;;9.30;99.90;;;;;;5074500;28;20462;-69
2022/01/02 05:28:59;;;;;;;7.40;5.63;;;9.40;99.90;;;;;;5074529;28;20535;-69
2022/01/02 05:31:26;;;;;;;10.60;6.50;;;9.40;99.90;;;;;;5074549;28;20462;-69
2022/01/02 05:33:53;;;;;;;8.80;6.30;;;9.40;99.90;;;;;;5074568;28;20927;-69
2022/01/02 05:36:19;;;;;;;8.50;6.57;;;9.40;99.90;;;;;;5074456;28;20482;-69
2022/01/02 05:38:46;;;;;;;12.60;6.50;;;9.30;99.90;;;;;;5074041;28;20504;-69
2022/01/02 05:41:13;;;;;;;9.30;6.70;;;9.30;99.90;;;;;;5074567;28;20477;-70
2022/01/02 05:43:39;;;;;;;8.37;6.60;;;9.40;99.90;;;;;;5075291;28;20458;-70
2022/01/02 05:46:07;;;;;;;10.83;8.00;;;9.30;99.90;;;;;;5075147;28;20526;-70
2022/01/02 05:48:36;;;;;;;12.00;6.43;;;9.30;99.90;;;;;;5074783;28;20859;-71
2022/01/02 05:51:02;;;;;;;6.47;5.80;;;9.40;99.90;;;;;;5074743;28;20466;-70
2022/01/02 05:53:30;;;;;;;6.83;5.87;;;9.40;99.90;;;;;;5074785;28;20519;-70
2022/01/02 05:55:57;;;;;;;9.63;6.60;;;9.40;99.90;;;;;;5074399;28;20508;-68
2022/01/02 05:58:24;;;;;;;10.57;6.93;;;9.40;99.90;;;;;;5074377;28;20503;-70
2022/01/02 06:00:50;;;;;;;10.20;6.10;;;9.40;99.90;;;;;;5074568;28;20697;-70
2022/01/02 06:03:19;;;;;;;8.60;6.67;;;9.40;99.90;;;;;;5074313;28;20465;-70
2022/01/02 06:05:46;;;;;;;7.40;6.00;;;9.40;99.90;;;;;;5074332;28;20458;-69
2022/01/02 06:08:13;;;;;;;8.40;5.90;;;9.40;99.90;;;;;;5074313;28;20921;-69
2022/01/02 06:10:40;;;;;;;11.53;6.50;;;9.50;99.90;;;;;;5074619;28;20455;-69
2022/01/02 06:13:06;;;;;;;8.47;5.80;;;9.50;99.90;;;;;;5074298;28;20458;-69
2022/01/02 06:15:33;;;;;;;8.90;6.07;;;9.40;99.90;;;;;;5073760;28;20462;-69
2022/01/02 06:18:00;;;;;;;8.30;6.60;;;9.40;99.90;;;;;;5074076;28;20450;-69
2022/01/02 06:20:28;;;;;;;8.03;6.57;;;9.40;99.90;;;;;;5073833;28;20535;-69
2022/01/02 06:22:55;;;;;;;8.00;6.27;;;9.40;99.90;;;;;;5073877;28;20458;-70
2022/01/02 06:25:22;;;;;;;7.40;6.60;;;9.40;99.90;;;;;;5075255;28;20457;-69
2022/01/02 06:27:49;;;;;;;8.20;6.70;;;9.40;99.90;;;;;;5077114;28;20482;-69
2022/01/02 06:30:19;;;;;;;9.80;6.20;;;9.40;99.90;;;;;;5078431;28;20484;-69
2022/01/02 06:32:46;;;;;;;10.60;5.93;;;9.40;99.90;;;;;;5077280;28;20781;-70
2022/01/02 06:35:13;;;;;;;10.57;6.20;;;9.40;99.90;;;;;;5077183;28;20934;-71
2022/01/02 06:37:41;;;;;;;6.60;5.20;;;9.50;99.90;;;;;;5077192;28;20462;-69
2022/01/02 06:40:08;;;;;;;9.00;6.20;;;9.50;99.90;;;;;;5076984;28;20469;-69
2022/01/02 06:42:35;;;;;;;7.77;6.07;;;9.50;99.90;;;;;;5077096;28;20896;-69
2022/01/02 06:45:02;;;;;;;11.90;5.80;;;9.50;99.90;;;;;;5076870;28;20469;-70
2022/01/02 06:47:28;;;;;;;10.60;6.50;;;9.50;99.90;;;;;;5076621;28;20986;-70
2022/01/02 06:49:55;;;;;;;8.60;5.83;;;9.60;99.90;;;;;;5077024;28;20458;-70
2022/01/02 06:52:22;;;;;;;8.17;5.30;;;9.60;99.90;;;;;;5077047;28;20805;-70
2022/01/02 06:54:53;;;;;;;6.07;5.20;;;9.50;99.90;;;;;;5077005;28;20458;-70
2022/01/02 06:57:20;;;;;;;6.97;5.53;;;9.60;99.90;;;;;;5076962;28;20450;-68
2022/01/02 06:59:47;;;;;;;7.90;5.60;;;9.60;99.90;;;;;;5076983;28;20454;-70
2022/01/02 07:02:14;;;;;;;7.00;5.67;;;9.60;99.90;;;;;;5076957;28;20462;-69
2022/01/02 07:04:41;;;;;;;8.37;5.37;;;9.70;99.90;;;;;;5076528;28;20492;-69
2022/01/02 07:07:08;;;;;;;8.70;5.63;;;9.80;99.90;;;;;;5076531;28;20458;-69
2022/01/02 07:09:34;;;;;;;7.47;5.90;;;9.80;99.90;;;;;;5076543;28;20478;-69
2022/01/02 07:12:03;;;;;;;7.53;5.87;;;9.70;99.90;;;;;;5076563;28;20469;-70
2022/01/02 07:14:30;;;;;;;8.17;5.13;;;9.70;99.90;;;;;;5076271;28;20795;-70
2022/01/02 07:16:57;;;;;;;10.40;5.67;;;9.80;99.90;;;;;;5076258;28;20453;-69
2022/01/02 07:19:25;;;;;;;7.10;5.17;;;9.80;99.90;;;;;;5076572;28;20461;-70
2022/01/02 07:21:53;;;;;;;8.47;5.57;;;9.80;99.90;;;;;;5076387;28;20560;-70
2022/01/02 07:24:21;;;;;;;7.67;5.40;;;9.80;99.90;;;;;;5076239;28;20465;-70
2022/01/02 07:26:48;;;;;;;7.50;5.40;;;9.80;99.90;;;;;;5076151;28;20803;-70
2022/01/02 07:29:16;;;;;;;6.50;5.27;;;9.80;99.90;;;;;;5076196;28;20485;-70
2022/01/02 07:31:45;;;;;;;8.60;5.50;;;9.90;99.90;;;;;;5076018;28;20555;-69
2022/01/02 07:34:12;;;;;;;8.57;5.27;;;9.80;99.90;;;;;;5076035;28;20516;-69
2022/01/02 07:36:39;;;;;;;5.30;4.80;;;9.90;99.90;;;;;;5075820;28;20462;-69
2022/01/02 07:39:06;;;;;;;7.43;5.00;;;9.90;99.90;;;;;;5076153;28;20564;-69
2022/01/02 07:41:33;;;;;;;5.73;5.10;;;9.90;99.90;;;;;;5075799;28;20557;-70
2022/01/02 07:44:00;;;;;;;6.83;4.90;;;9.90;99.90;;;;;;5075995;28;20454;-70
2022/01/02 07:46:28;;;;;;;9.63;4.60;;;9.90;99.90;;;;;;5075905;28;20458;-70
2022/01/02 07:48:55;;;;;;;10.83;5.00;;;9.90;99.90;;;;;;5075375;28;20871;-69
2022/01/02 07:51:22;;;;;;;5.17;4.60;;;10.00;99.90;;;;;;5075609;28;20851;-70
2022/01/02 07:53:48;;;;;;;6.40;4.83;;;10.00;99.90;;;;;;5075609;28;20458;-69
2022/01/02 07:56:15;;;;;;;8.20;4.90;;;10.00;99.90;;;;;;5075642;28;20469;-70
2022/01/02 07:58:42;;;;;;;8.00;4.50;;;10.00;99.90;;;;;;5075915;28;20831;-69
2022/01/02 08:01:09;;;;;;;5.13;4.63;;;10.10;99.90;;;;;;5075873;28;20454;-69
2022/01/02 08:03:37;;;;;;;6.27;4.60;;;10.00;99.90;;;;;;5075691;28;20450;-70
2022/01/02 08:06:04;;;;;;;7.40;5.07;;;10.00;99.90;;;;;;5075712;28;20459;-70
2022/01/02 08:08:33;;;;;;;5.70;4.43;;;10.10;99.90;;;;;;5075510;28;20784;-72
2022/01/02 08:10:59;;;;;;;5.73;4.80;;;10.10;99.90;;;;;;5075660;28;20760;-69
2022/01/02 08:13:26;;;;;;;6.10;4.53;;;10.20;99.90;;;;;;5075338;28;20461;-71
2022/01/02 08:15:53;;;;;;;5.33;4.10;;;10.20;99.90;;;;;;5075474;28;20790;-72
2022/01/02 08:18:20;;;;;;;10.10;5.40;;;10.20;99.90;;;;;;5075852;28;20862;-70
2022/01/02 08:20:48;;;;;;;5.40;4.10;;;10.20;99.90;;;;;;5075989;28;20472;-72
2022/01/02 08:23:19;;;;;;;6.13;3.77;;;10.30;99.90;;;;;;5075377;28;20497;-71
2022/01/02 08:25:49;;;;;;;6.73;4.40;;;10.40;99.90;;;;;;5075334;28;20453;-72
2022/01/02 08:28:19;;;;;;;10.83;4.50;;;10.40;99.90;;;;;;5075193;28;20604;-72
2022/01/02 08:30:47;;;;;;;5.23;4.20;;;10.40;99.90;;;;;;5075533;28;20468;-71
2022/01/02 08:33:14;;;;;;;6.00;4.53;;;10.50;99.90;;;;;;5075178;28;20450;-70
2022/01/02 08:35:41;;;;;;;5.43;4.30;;;10.40;99.90;;;;;;5075792;28;20783;-70
2022/01/02 08:38:10;;;;;;;7.83;4.27;;;10.50;99.90;;;;;;5075214;28;20785;-70
2022/01/02 08:40:37;;;;;;;4.67;3.90;;;10.50;99.90;;;;;;5075326;28;20516;-70
2022/01/02 08:43:04;;;;;;;7.00;4.00;;;10.60;99.90;;;;;;5074627;28;20488;-70
2022/01/02 08:45:30;;;;;;;5.73;3.80;;;10.60;99.90;;;;;;5074777;28;20458;-70
2022/01/02 08:48:00;;;;;;;6.07;3.80;;;10.70;99.90;;;;;;5073955;28;20497;-70
2022/01/02 08:50:27;;;;;;;6.60;4.17;;;10.70;99.90;;;;;;5074479;28;20946;-70
2022/01/02 08:52:54;;;;;;;4.23;3.80;;;10.80;99.90;;;;;;5074762;28;20462;-70
2022/01/02 08:55:22;;;;;;;7.13;4.60;;;10.80;99.90;;;;;;5074863;28;20454;-70
2022/01/02 08:57:49;;;;;;;4.90;3.30;;;10.80;99.90;;;;;;5074388;28;20515;-70
2022/01/02 09:00:16;;;;;;;4.83;3.70;;;10.80;99.90;;;;;;5074572;28;20450;-70
2022/01/02 09:02:46;;;;;;;4.40;3.67;;;10.90;99.90;;;;;;5074626;28;20531;-70
2022/01/02 09:05:13;;;;;;;4.83;3.50;;;10.80;99.90;;;;;;5074948;28;20489;-70
2022/01/02 09:07:39;;;;;;;7.70;4.00;;;10.80;99.90;;;;;;5074907;28;20458;-70
2022/01/02 09:10:07;;;;;;;5.80;4.10;;;10.80;99.90;;;;;;5074325;28;20834;-70
2022/01/02 09:12:35;;;;;;;4.87;4.20;;;10.80;99.90;;;;;;5074582;28;20515;-69
2022/01/02 09:15:01;;;;;;;6.30;3.70;;;10.70;99.90;;;;;;5074282;28;20465;-71
2022/01/02 09:17:28;;;;;;;9.43;4.10;;;10.70;99.90;;;;;;5074359;28;20454;-70
2022/01/02 09:19:57;;;;;;;5.10;3.40;;;10.70;99.90;;;;;;5074562;28;20461;-70
2022/01/02 09:22:24;;;;;;;4.10;3.30;;;10.70;99.90;;;;;;5074304;28;20543;-70
2022/01/02 09:24:52;;;;;;;5.60;3.50;;;10.80;99.90;;;;;;5074537;28;20494;-71
2022/01/02 09:27:19;;;;;;;4.90;3.40;;;10.80;99.90;;;;;;5074157;28;20919;-70
2022/01/02 09:29:47;;;;;;;7.90;3.90;;;10.90;99.90;;;;;;5074429;28;20490;-69
2022/01/02 09:32:13;;;;;;;9.30;4.30;;;11.00;99.90;;;;;;5074395;28;20465;-70
2022/01/02 09:34:40;;;;;;;4.50;3.60;;;11.00;99.90;;;;;;5074119;28;20458;-70
2022/01/02 09:37:07;;;;;;;6.27;3.43;;;11.10;99.90;;;;;;5074097;28;20907;-70
2022/01/02 09:39:34;;;;;;;4.23;3.70;;;11.10;99.90;;;;;;5074252;28;20853;-70
2022/01/02 09:42:01;;;;;;;4.20;3.37;;;11.10;99.90;;;;;;5074470;28;20492;-69
2022/01/02 09:44:29;;;;;;;6.13;3.30;;;11.10;99.90;;;;;;5074355;28;20464;-70
2022/01/02 09:46:58;;;;;;;5.30;3.83;;;11.10;99.90;;;;;;5074208;28;20458;-70
2022/01/02 09:49:25;;;;;;;5.50;4.03;;;11.10;99.90;;;;;;5073885;28;20492;-70
2022/01/02 09:51:51;;;;;;;4.70;3.37;;;11.10;99.90;;;;;;5074167;28;20462;-70
2022/01/02 09:54:18;;;;;;;6.57;3.63;;;11.20;99.90;;;;;;5074410;28;20466;-70
2022/01/02 09:56:45;;;;;;;8.00;3.50;;;11.20;99.90;;;;;;5073830;28;20454;-71
2022/01/02 09:59:12;;;;;;;8.33;4.30;;;11.30;99.90;;;;;;5075200;28;20450;-70
2022/01/02 10:01:38;;;;;;;6.00;3.03;;;11.30;99.90;;;;;;5077580;28;20462;-70
2022/01/02 10:04:06;;;;;;;10.10;3.10;;;11.40;99.90;;;;;;5078376;28;20464;-70
2022/01/02 10:06:41;;;;;;;8.17;4.57;;;11.40;99.90;;;;;;5077910;28;20458;-71
2022/01/02 10:09:15;;;;;;;4.37;3.40;;;11.50;99.90;;;;;;5077279;28;21000;-70
2022/01/02 10:11:42;;;;;;;3.73;3.13;;;11.50;99.90;;;;;;5077471;28;20537;-70
2022/01/02 10:14:11;;;;;;;4.10;3.23;;;11.50;99.90;;;;;;5077257;28;20772;-71
2022/01/02 10:16:39;;;;;;;8.13;3.53;;;11.50;99.90;;;;;;5077485;28;20454;-70
2022/01/02 10:19:20;;;;;;;5.70;3.57;;;11.50;99.90;;;;;;5077417;28;20523;-70
2022/01/02 10:21:55;;;;;;;8.83;4.10;;;11.50;99.90;;;;;;5077488;28;20906;-69
2022/01/02 10:24:23;;;;;;;11.80;4.80;;;11.60;99.90;;;;;;5077831;28;20453;-69
2022/01/02 10:27:10;;;;;;;6.03;3.67;;;11.50;99.90;;;;;;5077600;28;20453;-69
2022/01/02 10:29:42;;;;;;;5.13;3.60;;;11.50;99.90;;;;;;5077474;28;20918;-70
2022/01/02 10:32:30;;;;;;;7.90;4.43;;;11.60;99.90;;;;;;5077561;28;20586;-70
2022/01/02 10:35:11;;;;;;;4.17;3.40;;;11.60;99.90;;;;;;5077866;28;20465;-70
2022/01/02 10:37:39;;;;;;;9.30;5.40;;;11.60;99.90;;;;;;5077837;28;20435;-70
2022/01/02 10:40:23;;;;;;;6.43;3.73;;;11.60;99.90;;;;;;5077526;28;20771;-70
2022/01/02 10:42:49;;;;;;;5.80;3.60;;;11.60;99.90;;;;;;5077689;28;20459;-70
2022/01/02 10:45:31;;;;;;;5.00;3.87;;;11.60;99.90;;;;;;5077479;28;20537;-70
2022/01/02 10:47:58;;;;;;;8.13;3.73;;;11.50;99.90;;;;;;5076305;28;20529;-69
2022/01/02 10:50:26;;;;;;;6.27;3.27;;;11.50;99.90;;;;;;5076690;28;20493;-70
2022/01/02 10:52:52;;;;;;;4.97;3.30;;;11.50;99.90;;;;;;5077007;28;20465;-69
2022/01/02 10:55:22;;;;;;;8.13;3.57;;;11.50;99.90;;;;;;5077038;28;20511;-69
2022/01/02 10:57:51;;;;;;;5.33;3.30;;;11.50;99.90;;;;;;5077029;28;20774;-71
2022/01/02 11:00:19;;;;;;;7.20;3.33;;;11.40;99.90;;;;;;5076858;28;20915;-70
2022/01/02 11:02:47;;;;;;;4.83;3.23;;;11.40;99.90;;;;;;5076623;28;20976;-70
2022/01/02 11:05:14;;;;;;;5.80;3.37;;;11.40;99.90;;;;;;5077009;28;20468;-70
2022/01/02 11:07:44;;;;;;;4.73;2.93;;;11.50;99.90;;;;;;5076304;28;20891;-70
2022/01/02 11:10:12;;;;;;;4.83;3.63;;;11.50;99.90;;;;;;5076752;28;20564;-70
2022/01/02 11:12:40;;;;;;;8.67;3.60;;;11.40;99.90;;;;;;5076484;28;20481;-70
2022/01/02 11:15:08;;;;;;;6.33;3.77;;;11.30;99.90;;;;;;5076499;28;20462;-70
2022/01/02 11:17:36;;;;;;;8.93;4.60;;;11.40;99.90;;;;;;5076737;28;20465;-71
2022/01/02 11:20:04;;;;;;;8.30;3.70;;;11.40;99.90;;;;;;5076581;28;20490;-70
2022/01/02 11:22:35;;;;;;;5.17;3.20;;;11.30;99.90;;;;;;5076749;28;20934;-71
2022/01/02 11:25:14;;;;;;;7.73;4.13;;;11.20;99.90;;;;;;5076443;28;20442;-70
2022/01/02 11:27:45;;;;;;;10.00;3.57;;;11.10;99.90;;;;;;5076704;28;20773;-70
2022/01/02 11:30:40;;;;;;;10.73;4.40;;;11.10;99.90;;;;;;5076412;28;20584;-71
2022/01/02 11:33:09;;;;;;;8.30;5.43;;;11.00;99.90;;;;;;5076227;28;20922;-71
2022/01/02 11:35:39;;;;;;;8.60;5.30;;;11.00;99.90;;;;;;5076327;28;20462;-70
2022/01/02 11:38:07;;;;;;;9.47;4.83;;;11.00;99.90;;;;;;5076322;28;20454;-71
2022/01/02 11:40:51;;;;;;;8.30;4.03;;;11.00;99.90;;;;;;5076008;28;20451;-70
2022/01/02 11:43:53;;;;;;;8.23;4.90;;;11.00;99.90;;;;;;5076311;28;20442;-71
2022/01/02 11:46:25;;;;;;;6.60;4.50;;;11.00;99.90;;;;;;5076111;28;20786;-70
2022/01/02 11:49:16;;;;;;;6.77;4.57;;;11.00;99.90;;;;;;5076122;28;20482;-70
2022/01/02 11:52:09;;;;;;;11.73;5.13;;;11.00;99.90;;;;;;5075652;28;20449;-71
2022/01/02 11:54:54;;;;;;;12.53;5.63;;;11.00;99.90;;;;;;5075821;28;20906;-71
2022/01/02 11:57:46;;;;;;;9.03;5.73;;;11.00;99.90;;;;;;5075934;28;20762;-71
2022/01/02 12:00:32;;;;;;;10.00;5.13;;;11.00;99.90;;;;;;5076133;28;20512;-71
2022/01/02 12:02:59;;;;;;;7.67;5.57;;;11.00;99.90;;;;;;5075639;28;20882;-71
2022/01/02 12:05:26;;;;;;;7.37;5.27;;;11.00;99.90;;;;;;5075828;28;20523;-71
2022/01/02 12:07:55;;;;;;;8.73;5.70;;;11.00;99.90;;;;;;5075610;28;20511;-71
2022/01/02 12:10:27;;;;;;;10.60;5.50;;;11.00;99.90;;;;;;5075231;28;20977;-71
2022/01/02 12:13:16;;;;;;;8.33;5.13;;;11.00;99.90;;;;;;5075564;28;20844;-71
2022/01/02 12:16:10;;;;;;;8.40;5.13;;;11.00;99.90;;;;;;5075615;28;20458;-72
2022/01/02 12:18:56;;;;;;;10.37;5.83;;;11.00;99.90;;;;;;5075662;28;20465;-71
2022/01/02 12:21:23;;;;;;;10.23;5.27;;;11.00;99.90;;;;;;5076596;28;20728;-72
2022/01/02 12:23:56;;;;;;;9.73;5.03;;;10.90;99.90;;;;;;5076695;28;20490;-71
2022/01/02 12:26:29;;;;;;;9.93;5.20;;;10.90;99.90;;;;;;5076281;28;20867;-72
2022/01/02 12:29:01;;;;;;;6.57;4.83;;;10.90;99.90;;;;;;5075595;28;20778;-70
2022/01/02 12:31:30;;;;;;;8.10;5.40;;;10.90;99.90;;;;;;5075104;28;20477;-72
2022/01/02 12:34:04;;;;;;;7.63;4.83;;;10.90;99.90;;;;;;5075207;28;20450;-72
2022/01/02 12:36:31;;;;;;;6.50;4.80;;;10.80;99.90;;;;;;5075033;28;20438;-72
2022/01/02 12:39:02;;;;;;;8.90;4.70;;;10.80;99.90;;;;;;5075192;28;20455;-72
2022/01/02 12:41:30;;;;;;;11.83;5.00;;;10.80;99.90;;;;;;5075195;28;20492;-71
2022/01/02 12:44:00;;;;;;;6.53;4.50;;;10.80;99.90;;;;;;5075219;28;20833;-71
2022/01/02 12:46:33;;;;;;;8.77;5.30;;;10.80;99.90;;;;;;5074960;28;20528;-72
2022/01/02 12:49:00;;;;;;;7.63;5.07;;;10.70;99.90;;;;;;5074633;28;20493;-71
2022/01/02 12:51:32;;;;;;;9.93;5.40;;;10.70;99.90;;;;;;5075097;28;20478;-71
2022/01/02 12:54:00;;;;;;;12.20;6.40;;;10.60;99.90;;;;;;5075339;28;20554;-72
2022/01/02 12:56:34;;;;;;;10.73;6.33;;;10.70;99.90;;;;;;5075123;28;20468;-72
2022/01/02 12:59:20;;;;;;;6.20;5.20;;;10.70;99.90;;;;;;5075339;28;20446;-71
2022/01/02 13:01:59;;;;;;;10.93;5.20;;;10.60;99.90;;;;;;5074888;28;20435;-71